Back to Top

Language: 

My Weather Underground Personal Weather Station Historical Data with Graphs...

Delerius Weather Station Historical Data
Daily Summary for September 24, 2017 Units:  English    Metric   Both
« Previous Day
Next Day »
Daily Weekly Monthly Yearly Custom
  High: Low: Average:
Temperature: 68.2 °F 49.3 °F 58.9 °F
Dew Point: 57.1 °F 47.2 °F 52.4 °F
Humidity: 96 % 61 % 80 %
Wind Speed: 12.0 mph 0.0 mph 5.1 mph
Wind Gust: 21.0 mph - -
Wind:- - SE
Pressure: 30.11 in 30.06 in -
Precipitation: 0.02 in    
Historical Graphs
 
 
Tabular Data for September 24, 2017
Time Temperature Dew Point Pressure Wind Wind Speed Wind Gust Humidity Rainfall Rate (Hourly) solar Conditions
00:02 56.8 °F 51.1 °F 30.10 in SE 3.0 mph 9.0 mph 81 % 0.00 in 0 W/m2
00:07 56.7 °F 51.2 °F 30.10 in SSE 2.0 mph 10.0 mph 82 % 0.00 in 0 W/m2
00:12 56.7 °F 50.9 °F 30.10 in SSE 4.0 mph 11.0 mph 81 % 0.00 in 0 W/m2
00:17 56.7 °F 50.9 °F 30.10 in SSE 6.0 mph 11.0 mph 81 % 0.00 in 0 W/m2
00:22 56.5 °F 51.1 °F 30.10 in SSE 5.0 mph 9.0 mph 82 % 0.00 in 0 W/m2
00:27 56.5 °F 51.1 °F 30.10 in South 4.0 mph 8.0 mph 82 % 0.00 in 0 W/m2
00:32 56.3 °F 50.9 °F 30.10 in South 3.0 mph 8.0 mph 82 % 0.00 in 0 W/m2
00:37 56.1 °F 50.7 °F 30.10 in South 3.0 mph 7.0 mph 82 % 0.00 in 0 W/m2
00:42 55.9 °F 50.5 °F 30.10 in South 4.0 mph 10.0 mph 82 % 0.00 in 0 W/m2
00:47 55.8 °F 50.7 °F 30.10 in SSE 4.0 mph 10.0 mph 83 % 0.00 in 0 W/m2
00:52 55.8 °F 50.7 °F 30.10 in SSE 4.0 mph 8.0 mph 83 % 0.00 in 0 W/m2
00:57 55.6 °F 50.5 °F 30.10 in SSE 5.0 mph 10.0 mph 83 % 0.00 in 0 W/m2
01:02 55.6 °F 50.8 °F 30.10 in SSE 6.0 mph 10.0 mph 84 % 0.00 in 0 W/m2
01:07 55.6 °F 50.8 °F 30.10 in SSE 5.0 mph 9.0 mph 84 % 0.00 in 0 W/m2
01:12 55.4 °F 50.6 °F 30.10 in SSE 4.0 mph 7.0 mph 84 % 0.00 in 0 W/m2
01:17 55.2 °F 50.5 °F 30.10 in SSE 2.0 mph 7.0 mph 84 % 0.00 in 0 W/m2
01:22 55.0 °F 50.6 °F 30.09 in SSE 3.0 mph 8.0 mph 85 % 0.00 in 0 W/m2
01:27 55.0 °F 50.6 °F 30.10 in SSE 5.0 mph 8.0 mph 85 % 0.00 in 0 W/m2
01:32 55.0 °F 50.6 °F 30.10 in SSE 4.0 mph 8.0 mph 85 % 0.00 in 0 W/m2
01:38 54.9 °F 50.4 °F 30.10 in SSE 3.0 mph 6.0 mph 85 % 0.00 in 0 W/m2
01:43 54.9 °F 50.4 °F 30.10 in SSE 2.0 mph 6.0 mph 85 % 0.00 in 0 W/m2
01:48 54.9 °F 50.4 °F 30.10 in SSE 1.0 mph 5.0 mph 85 % 0.00 in 0 W/m2
01:53 54.7 °F 50.3 °F 30.09 in South 1.0 mph 5.0 mph 85 % 0.00 in 0 W/m2
01:58 54.7 °F 50.6 °F 30.09 in South 1.0 mph 6.0 mph 86 % 0.00 in 0 W/m2
02:03 54.7 °F 50.6 °F 30.09 in South 2.0 mph 6.0 mph 86 % 0.00 in 0 W/m2
02:08 54.5 °F 50.4 °F 30.09 in South 3.0 mph 7.0 mph 86 % 0.00 in 0 W/m2
02:13 54.5 °F 50.4 °F 30.09 in South 4.0 mph 8.0 mph 86 % 0.00 in 0 W/m2
02:18 54.3 °F 50.2 °F 30.09 in SSE 5.0 mph 8.0 mph 86 % 0.00 in 0 W/m2
02:23 54.3 °F 50.2 °F 30.09 in SSE 5.0 mph 9.0 mph 86 % 0.00 in 0 W/m2
02:28 54.1 °F 50.0 °F 30.09 in SSE 6.0 mph 9.0 mph 86 % 0.00 in 0 W/m2
02:33 54.3 °F 50.2 °F 30.09 in SSE 5.0 mph 8.0 mph 86 % 0.00 in 0 W/m2
02:38 54.3 °F 50.2 °F 30.09 in SE 4.0 mph 8.0 mph 86 % 0.00 in 0 W/m2
02:43 54.1 °F 50.0 °F 30.09 in ESE 4.0 mph 9.0 mph 86 % 0.00 in 0 W/m2
02:48 54.1 °F 50.0 °F 30.09 in ESE 5.0 mph 9.0 mph 86 % 0.00 in 0 W/m2
02:53 54.0 °F 49.9 °F 30.09 in ESE 5.0 mph 9.0 mph 86 % 0.00 in 0 W/m2
02:58 54.0 °F 50.2 °F 30.09 in ESE 5.0 mph 9.0 mph 87 % 0.00 in 0 W/m2
03:03 53.8 °F 50.0 °F 30.09 in ESE 6.0 mph 9.0 mph 87 % 0.00 in 0 W/m2
03:08 53.6 °F 49.8 °F 30.09 in ESE 6.0 mph 9.0 mph 87 % 0.00 in 0 W/m2
03:13 53.4 °F 49.6 °F 30.08 in ESE 6.0 mph 9.0 mph 87 % 0.00 in 0 W/m2
03:14 53.4 °F 49.6 °F 30.08 in ESE 6.0 mph 9.0 mph 87 % 0.00 in 0 W/m2
03:19 53.4 °F 50.0 °F 30.09 in SE 5.0 mph 9.0 mph 88 % 0.00 in 0 W/m2
03:24 53.2 °F 49.8 °F 30.08 in SE 5.0 mph 9.0 mph 88 % 0.00 in 0 W/m2
03:29 53.2 °F 49.8 °F 30.08 in SSE 4.0 mph 8.0 mph 88 % 0.00 in 0 W/m2
03:34 53.2 °F 49.8 °F 30.08 in SSE 4.0 mph 7.0 mph 88 % 0.00 in 0 W/m2
03:39 53.2 °F 49.8 °F 30.08 in SE 4.0 mph 11.0 mph 88 % 0.00 in 0 W/m2
03:44 53.2 °F 49.8 °F 30.08 in SE 6.0 mph 11.0 mph 88 % 0.00 in 0 W/m2
03:49 53.2 °F 49.8 °F 30.08 in SE 6.0 mph 12.0 mph 88 % 0.00 in 0 W/m2
03:55 53.1 °F 49.6 °F 30.08 in SSE 5.0 mph 12.0 mph 88 % 0.00 in 0 W/m2
04:00 53.1 °F 49.6 °F 30.08 in SSE 4.0 mph 8.0 mph 88 % 0.00 in 0 W/m2
04:05 53.1 °F 49.6 °F 30.08 in SSE 4.0 mph 9.0 mph 88 % 0.00 in 0 W/m2
04:10 52.9 °F 49.4 °F 30.08 in SSE 4.0 mph 9.0 mph 88 % 0.00 in 0 W/m2
04:20 52.9 °F 49.7 °F 30.08 in SE 5.0 mph 9.0 mph 89 % 0.00 in 0 W/m2
04:23 52.7 °F 49.5 °F 30.07 in SE 5.0 mph 9.0 mph 89 % 0.00 in 0 W/m2
04:24 52.7 °F 49.5 °F 30.07 in SE 5.0 mph 9.0 mph 89 % 0.00 in 0 W/m2
04:25 52.7 °F 49.5 °F 30.07 in SE 5.0 mph 9.0 mph 89 % 0.00 in 0 W/m2
04:27 52.7 °F 49.5 °F 30.07 in SE 5.0 mph 9.0 mph 89 % 0.00 in 0 W/m2
04:32 52.5 °F 49.4 °F 30.07 in SE 3.0 mph 8.0 mph 89 % 0.00 in 0 W/m2
04:37 52.5 °F 49.1 °F 30.07 in SE 2.0 mph 8.0 mph 88 % 0.00 in 0 W/m2
04:42 52.5 °F 49.1 °F 30.07 in SSE 2.0 mph 8.0 mph 88 % 0.00 in 0 W/m2
04:47 52.3 °F 48.9 °F 30.07 in SE 3.0 mph 8.0 mph 88 % 0.00 in 0 W/m2
04:52 52.3 °F 48.9 °F 30.08 in SE 3.0 mph 7.0 mph 88 % 0.00 in 0 W/m2
04:57 52.2 °F 49.0 °F 30.08 in SE 3.0 mph 7.0 mph 89 % 0.00 in 0 W/m2
05:02 52.2 °F 49.0 °F 30.08 in SE 3.0 mph 7.0 mph 89 % 0.00 in 0 W/m2
05:07 52.0 °F 48.8 °F 30.07 in SE 3.0 mph 7.0 mph 89 % 0.00 in 0 W/m2
05:12 52.0 °F 48.8 °F 30.07 in SSE 2.0 mph 7.0 mph 89 % 0.00 in 0 W/m2
05:17 51.8 °F 48.7 °F 30.08 in SSE 1.0 mph 7.0 mph 89 % 0.00 in 0 W/m2
05:22 51.6 °F 48.5 °F 30.08 in Calm   4.0 mph 89 % 0.00 in 0 W/m2
05:27 51.4 °F 48.3 °F 30.08 in Calm   2.0 mph 89 % 0.00 in 0 W/m2
05:32 51.3 °F 48.1 °F 30.08 in Calm   1.0 mph 89 % 0.00 in 0 W/m2
05:37 50.9 °F 47.8 °F 30.08 in Calm   2.0 mph 89 % 0.00 in 0 W/m2
05:42 50.9 °F 48.1 °F 30.08 in Calm   2.0 mph 90 % 0.00 in 0 W/m2
05:47 50.7 °F 47.9 °F 30.08 in Calm   2.0 mph 90 % 0.00 in 0 W/m2
05:52 50.5 °F 47.7 °F 30.08 in East 1.0 mph 7.0 mph 90 % 0.00 in 0 W/m2
05:57 50.5 °F 47.7 °F 30.08 in East 1.0 mph 7.0 mph 90 % 0.00 in 0 W/m2
06:02 50.4 °F 47.8 °F 30.08 in ESE 2.0 mph 8.0 mph 91 % 0.00 in 0 W/m2
06:07 50.4 °F 47.8 °F 30.08 in ESE 3.0 mph 8.0 mph 91 % 0.00 in 0 W/m2
06:12 50.4 °F 47.8 °F 30.07 in ESE 2.0 mph 6.0 mph 91 % 0.00 in 0 W/m2
06:17 50.2 °F 47.7 °F 30.07 in ESE 2.0 mph 6.0 mph 91 % 0.00 in 0 W/m2
06:22 50.2 °F 47.7 °F 30.08 in ESE 2.0 mph 5.0 mph 91 % 0.00 in 0 W/m2
06:27 50.0 °F 47.5 °F 30.08 in ESE 2.0 mph 5.0 mph 91 % 0.00 in 0 W/m2
06:32 49.8 °F 47.3 °F 30.08 in SE 2.0 mph 5.0 mph 91 % 0.00 in 0 W/m2
06:37 49.8 °F 47.6 °F 30.08 in SE 2.0 mph 6.0 mph 92 % 0.00 in 0 W/m2
06:42 49.8 °F 47.6 °F 30.08 in ESE 3.0 mph 6.0 mph 92 % 0.00 in 0 W/m2
06:47 49.6 °F 47.4 °F 30.08 in ESE 2.0 mph 6.0 mph 92 % 0.00 in 0 W/m2
06:52 49.6 °F 47.4 °F 30.08 in ESE 1.0 mph 5.0 mph 92 % 0.00 in 0 W/m2
06:57 49.5 °F 47.2 °F 30.08 in Calm   4.0 mph 92 % 0.00 in 0 W/m2
07:02 49.5 °F 47.2 °F 30.08 in Calm   4.0 mph 92 % 0.00 in 5 W/m2
07:07 49.5 °F 47.5 °F 30.08 in ESE 1.0 mph 4.0 mph 93 % 0.00 in 7 W/m2
07:12 49.6 °F 47.7 °F 30.08 in ESE 1.0 mph 4.0 mph 93 % 0.00 in 9 W/m2
07:17 49.6 °F 47.7 °F 30.09 in ESE 1.0 mph 3.0 mph 93 % 0.00 in 16 W/m2
07:22 49.5 °F 47.5 °F 30.09 in Calm   2.0 mph 93 % 0.00 in 21 W/m2
07:27 49.5 °F 47.5 °F 30.09 in Calm   2.0 mph 93 % 0.00 in 26 W/m2
07:32 49.5 °F 47.5 °F 30.09 in Calm   2.0 mph 93 % 0.00 in 26 W/m2
07:37 49.5 °F 47.5 °F 30.09 in Calm   2.0 mph 93 % 0.00 in 28 W/m2
07:42 49.5 °F 47.5 °F 30.09 in Calm   3.0 mph 93 % 0.00 in 30 W/m2
07:48 49.3 °F 47.3 °F 30.09 in Calm   3.0 mph 93 % 0.00 in 32 W/m2
07:53 49.3 °F 47.3 °F 30.09 in Calm   3.0 mph 93 % 0.00 in 35 W/m2
07:58 49.5 °F 47.8 °F 30.09 in Calm   2.0 mph 94 % 0.00 in 30 W/m2
08:03 49.5 °F 47.8 °F 30.09 in Calm   4.0 mph 94 % 0.00 in 25 W/m2
08:08 50.0 °F 48.6 °F 30.09 in ESE 1.0 mph 5.0 mph 95 % 0.00 in 25 W/m2
08:13 50.4 °F 49.0 °F 30.09 in ESE 2.0 mph 6.0 mph 95 % 0.00 in 30 W/m2
08:18 50.5 °F 49.2 °F 30.09 in ESE 4.0 mph 7.0 mph 95 % 0.00 in 30 W/m2
08:23 50.7 °F 49.3 °F 30.09 in ESE 4.0 mph 8.0 mph 95 % 0.00 in 32 W/m2
08:28 50.9 °F 49.5 °F 30.09 in SE 4.0 mph 8.0 mph 95 % 0.00 in 76 W/m2
08:33 51.1 °F 49.7 °F 30.09 in SE 3.0 mph 8.0 mph 95 % 0.00 in 93 W/m2
08:38 51.3 °F 49.9 °F 30.09 in SE 3.0 mph 6.0 mph 95 % 0.00 in 74 W/m2
08:43 51.3 °F 49.9 °F 30.09 in SE 3.0 mph 8.0 mph 95 % 0.00 in 107 W/m2
08:48 51.4 °F 50.1 °F 30.10 in SE 3.0 mph 8.0 mph 95 % 0.00 in 62 W/m2
08:53 51.4 °F 50.1 °F 30.10 in SE 3.0 mph 6.0 mph 95 % 0.00 in 111 W/m2
08:58 51.6 °F 50.2 °F 30.10 in SE 3.0 mph 8.0 mph 95 % 0.00 in 123 W/m2
09:03 52.0 °F 50.9 °F 30.10 in SE 4.0 mph 9.0 mph 96 % 0.00 in 132 W/m2
09:08 52.2 °F 51.1 °F 30.10 in SE 4.0 mph 10.0 mph 96 % 0.00 in 148 W/m2
09:13 52.3 °F 51.2 °F 30.10 in SE 3.0 mph 10.0 mph 96 % 0.00 in 118 W/m2
09:18 52.7 °F 51.6 °F 30.10 in SE 2.0 mph 6.0 mph 96 % 0.00 in 84 W/m2
09:23 52.9 °F 51.8 °F 30.10 in SSE 3.0 mph 10.0 mph 96 % 0.00 in 192 W/m2
09:28 53.1 °F 52.0 °F 30.10 in SSE 4.0 mph 10.0 mph 96 % 0.00 in 227 W/m2
09:33 53.2 °F 51.8 °F 30.11 in SE 4.0 mph 8.0 mph 95 % 0.00 in 304 W/m2
09:38 53.6 °F 52.5 °F 30.10 in SE 3.0 mph 8.0 mph 96 % 0.00 in 267 W/m2
09:43 54.0 °F 52.6 °F 30.10 in SSE 4.0 mph 10.0 mph 95 % 0.00 in 366 W/m2
09:48 54.5 °F 53.1 °F 30.10 in SSE 5.0 mph 10.0 mph 95 % 0.00 in 404 W/m2
09:50 54.7 °F 53.3 °F 30.10 in SSE 5.0 mph 10.0 mph 95 % 0.00 in 390 W/m2
09:55 55.2 °F 53.8 °F 30.10 in SSE 6.0 mph 10.0 mph 95 % 0.00 in 385 W/m2
10:00 55.6 °F 53.6 °F 30.10 in SSE 6.0 mph 11.0 mph 93 % 0.00 in 383 W/m2
10:05 55.9 °F 53.6 °F 30.10 in SSE 6.0 mph 11.0 mph 92 % 0.00 in 404 W/m2
10:10 56.5 °F 53.9 °F 30.11 in SSE 5.0 mph 11.0 mph 91 % 0.00 in 424 W/m2
10:15 57.0 °F 54.1 °F 30.10 in SSE 4.0 mph 11.0 mph 90 % 0.00 in 432 W/m2
10:20 57.7 °F 54.2 °F 30.10 in SE 5.0 mph 9.0 mph 88 % 0.00 in 462 W/m2
10:25 58.3 °F 54.4 °F 30.10 in SSE 5.0 mph 9.0 mph 87 % 0.00 in 450 W/m2
10:30 58.6 °F 54.8 °F 30.10 in SSE 5.0 mph 9.0 mph 87 % 0.00 in 454 W/m2
10:35 59.2 °F 54.7 °F 30.10 in SSE 6.0 mph 10.0 mph 85 % 0.00 in 469 W/m2
10:40 59.5 °F 55.0 °F 30.10 in SSE 5.0 mph 10.0 mph 85 % 0.00 in 489 W/m2
10:45 59.7 °F 54.9 °F 30.10 in SSE 6.0 mph 12.0 mph 84 % 0.00 in 512 W/m2
10:50 59.9 °F 54.7 °F 30.11 in SSE 6.0 mph 12.0 mph 83 % 0.00 in 501 W/m2
10:55 60.3 °F 55.4 °F 30.10 in SSE 6.0 mph 12.0 mph 84 % 0.00 in 552 W/m2
11:00 60.6 °F 55.4 °F 30.10 in SSE 7.0 mph 12.0 mph 83 % 0.00 in 547 W/m2
11:05 61.2 °F 55.6 °F 30.10 in SE 7.0 mph 11.0 mph 82 % 0.00 in 540 W/m2
11:10 61.5 °F 56.0 °F 30.10 in SE 6.0 mph 11.0 mph 82 % 0.00 in 547 W/m2
11:15 61.9 °F 56.0 °F 30.10 in SE 6.0 mph 11.0 mph 81 % 0.00 in 513 W/m2
11:20 62.2 °F 56.0 °F 30.10 in SE 7.0 mph 13.0 mph 80 % 0.00 in 540 W/m2
11:25 62.6 °F 56.3 °F 30.10 in SE 8.0 mph 13.0 mph 80 % 0.00 in 555 W/m2
11:30 63.0 °F 56.3 °F 30.09 in SSE 7.0 mph 13.0 mph 79 % 0.00 in 594 W/m2
11:35 63.3 °F 56.3 °F 30.10 in SSE 6.0 mph 11.0 mph 78 % 0.00 in 594 W/m2
11:40 63.7 °F 57.0 °F 30.09 in SE 6.0 mph 11.0 mph 79 % 0.00 in 461 W/m2
11:45 64.0 °F 56.7 °F 30.09 in SE 5.0 mph 9.0 mph 77 % 0.00 in 283 W/m2
11:50 64.0 °F 56.0 °F 30.09 in SE 6.0 mph 12.0 mph 75 % 0.00 in 304 W/m2
11:55 63.9 °F 56.5 °F 30.09 in SE 6.0 mph 12.0 mph 77 % 0.00 in 360 W/m2
12:00 64.0 °F 56.7 °F 30.08 in SSE 6.0 mph 10.0 mph 77 % 0.00 in 570 W/m2
12:05 64.4 °F 56.3 °F 30.08 in SSE 7.0 mph 12.0 mph 75 % 0.00 in 573 W/m2
12:10 64.8 °F 56.6 °F 30.08 in SE 7.0 mph 14.0 mph 75 % 0.00 in 582 W/m2
12:15 65.1 °F 56.6 °F 30.08 in SE 7.0 mph 14.0 mph 74 % 0.00 in 633 W/m2
12:20 65.7 °F 57.1 °F 30.08 in SE 6.0 mph 13.0 mph 74 % 0.00 in 385 W/m2
12:25 65.8 °F 56.9 °F 30.08 in SE 6.0 mph 11.0 mph 73 % 0.00 in 548 W/m2
12:30 66.2 °F 56.1 °F 30.08 in SSE 7.0 mph 13.0 mph 70 % 0.00 in 573 W/m2
12:35 66.4 °F 56.7 °F 30.08 in SSE 7.0 mph 13.0 mph 71 % 0.00 in 473 W/m2
12:40 66.6 °F 56.9 °F 30.08 in SE 7.0 mph 12.0 mph 71 % 0.00 in 545 W/m2
12:45 66.9 °F 56.8 °F 30.08 in SE 7.0 mph 14.0 mph 70 % 0.00 in 564 W/m2
12:50 67.1 °F 56.6 °F 30.08 in SE 8.0 mph 14.0 mph 69 % 0.00 in 469 W/m2
12:55 67.1 °F 57.0 °F 30.08 in SE 8.0 mph 14.0 mph 70 % 0.00 in 352 W/m2
13:00 66.9 °F 56.4 °F 30.08 in SE 7.0 mph 15.0 mph 69 % 0.00 in 334 W/m2
13:05 66.9 °F 56.4 °F 30.08 in SE 8.0 mph 15.0 mph 69 % 0.00 in 522 W/m2
13:10 66.9 °F 55.2 °F 30.08 in SE 9.0 mph 21.0 mph 66 % 0.00 in 353 W/m2
13:15 66.9 °F 55.2 °F 30.07 in SSE 10.0 mph 21.0 mph 66 % 0.00 in 292 W/m2
13:20 66.7 °F 55.0 °F 30.07 in SSE 10.0 mph 15.0 mph 66 % 0.00 in 336 W/m2
13:21 66.7 °F 55.0 °F 30.07 in SSE 10.0 mph 15.0 mph 66 % 0.00 in 350 W/m2
13:26 66.6 °F 55.3 °F 30.07 in South 9.0 mph 16.0 mph 67 % 0.00 in 380 W/m2
13:31 66.6 °F 55.3 °F 30.07 in SSE 9.0 mph 16.0 mph 67 % 0.00 in 308 W/m2
13:36 66.6 °F 54.8 °F 30.07 in SSE 10.0 mph 16.0 mph 66 % 0.00 in 248 W/m2
13:41 66.6 °F 55.3 °F 30.07 in SSE 10.0 mph 16.0 mph 67 % 0.00 in 276 W/m2
13:46 66.6 °F 55.3 °F 30.07 in SE 9.0 mph 15.0 mph 67 % 0.00 in 318 W/m2
13:51 66.6 °F 55.3 °F 30.07 in SE 10.0 mph 15.0 mph 67 % 0.00 in 267 W/m2
13:56 66.6 °F 55.3 °F 30.07 in SSE 10.0 mph 15.0 mph 67 % 0.00 in 255 W/m2
14:01 66.6 °F 55.7 °F 30.07 in SE 9.0 mph 15.0 mph 68 % 0.00 in 260 W/m2
14:06 66.6 °F 55.3 °F 30.07 in SE 8.0 mph 15.0 mph 67 % 0.00 in 257 W/m2
14:11 66.6 °F 55.3 °F 30.07 in SE 9.0 mph 16.0 mph 67 % 0.00 in 241 W/m2
14:16 66.4 °F 54.7 °F 30.07 in SE 10.0 mph 16.0 mph 66 % 0.00 in 230 W/m2
14:26 66.2 °F 54.5 °F 30.07 in SE 9.0 mph 18.0 mph 66 % 0.00 in 206 W/m2
14:31 66.2 °F 54.9 °F 30.07 in SE 10.0 mph 18.0 mph 67 % 0.00 in 227 W/m2
14:36 66.2 °F 54.9 °F 30.07 in SE 9.0 mph 15.0 mph 67 % 0.00 in 244 W/m2
14:42 66.2 °F 54.9 °F 30.07 in SE 9.0 mph 16.0 mph 67 % 0.00 in 269 W/m2
14:47 66.4 °F 54.7 °F 30.07 in SE 10.0 mph 16.0 mph 66 % 0.00 in 276 W/m2
14:52 66.4 °F 54.3 °F 30.07 in SE 10.0 mph 18.0 mph 65 % 0.00 in 274 W/m2
14:57 66.4 °F 54.3 °F 30.07 in SE 10.0 mph 18.0 mph 65 % 0.00 in 281 W/m2
15:02 66.4 °F 54.3 °F 30.06 in SE 9.0 mph 18.0 mph 65 % 0.00 in 269 W/m2
15:07 66.4 °F 53.8 °F 30.07 in SE 11.0 mph 20.0 mph 64 % 0.00 in 269 W/m2
15:12 66.4 °F 53.8 °F 30.07 in SE 12.0 mph 20.0 mph 64 % 0.00 in 292 W/m2
15:17 66.4 °F 54.3 °F 30.06 in SE 10.0 mph 18.0 mph 65 % 0.00 in 522 W/m2
15:22 66.6 °F 53.6 °F 30.06 in SE 11.0 mph 19.0 mph 63 % 0.00 in 257 W/m2
15:27 66.7 °F 53.7 °F 30.06 in SE 12.0 mph 19.0 mph 63 % 0.00 in 214 W/m2
15:32 66.7 °F 53.7 °F 30.06 in SE 11.0 mph 19.0 mph 63 % 0.00 in 190 W/m2
15:37 66.6 °F 53.6 °F 30.06 in SE 10.0 mph 18.0 mph 63 % 0.00 in 220 W/m2
15:42 66.7 °F 54.2 °F 30.06 in SSE 9.0 mph 16.0 mph 64 % 0.00 in 267 W/m2
15:47 66.7 °F 53.7 °F 30.06 in SSE 9.0 mph 16.0 mph 63 % 0.00 in 309 W/m2
15:52 66.9 °F 53.9 °F 30.06 in SSE 9.0 mph 16.0 mph 63 % 0.00 in 260 W/m2
15:57 67.3 °F 54.3 °F 30.06 in SE 9.0 mph 16.0 mph 63 % 0.00 in 524 W/m2
16:02 67.6 °F 54.6 °F 30.06 in SE 9.0 mph 15.0 mph 63 % 0.00 in 318 W/m2
16:07 68.2 °F 54.7 °F 30.06 in SE 9.0 mph 15.0 mph 62 % 0.00 in 281 W/m2
16:12 68.2 °F 54.7 °F 30.06 in SE 9.0 mph 14.0 mph 62 % 0.00 in 248 W/m2
16:17 68.0 °F 54.5 °F 30.06 in SE 9.0 mph 14.0 mph 62 % 0.00 in 171 W/m2
16:22 67.6 °F 53.7 °F 30.06 in SE 9.0 mph 15.0 mph 61 % 0.00 in 148 W/m2
16:27 67.5 °F 54.0 °F 30.06 in SE 10.0 mph 15.0 mph 62 % 0.00 in 134 W/m2
16:32 67.1 °F 53.6 °F 30.06 in SE 9.0 mph 15.0 mph 62 % 0.00 in 155 W/m2
16:37 66.9 °F 53.5 °F 30.06 in SE 9.0 mph 16.0 mph 62 % 0.00 in 125 W/m2
16:42 66.7 °F 53.7 °F 30.06 in SE 9.0 mph 16.0 mph 63 % 0.00 in 88 W/m2
16:47 66.7 °F 54.2 °F 30.06 in SSE 7.0 mph 14.0 mph 64 % 0.00 in 88 W/m2
16:52 66.6 °F 54.4 °F 30.06 in SE 6.0 mph 13.0 mph 65 % 0.00 in 97 W/m2
16:57 66.4 °F 54.3 °F 30.06 in SE 7.0 mph 13.0 mph 65 % 0.00 in 88 W/m2
17:02 66.4 °F 54.3 °F 30.06 in SE 6.0 mph 11.0 mph 65 % 0.00 in 79 W/m2
17:08 66.0 °F 54.3 °F 30.06 in SE 6.0 mph 11.0 mph 66 % 0.00 in 69 W/m2
17:13 66.0 °F 54.3 °F 30.06 in SE 6.0 mph 11.0 mph 66 % 0.00 in 49 W/m2
17:18 65.8 °F 54.2 °F 30.06 in SE 6.0 mph 10.0 mph 66 % 0.00 in 35 W/m2
17:23 65.8 °F 54.2 °F 30.06 in SE 6.0 mph 12.0 mph 66 % 0.00 in 35 W/m2
17:24 65.8 °F 54.2 °F 30.06 in SE 6.0 mph 12.0 mph 66 % 0.00 in 37 W/m2
17:29 65.7 °F 54.0 °F 30.06 in SE 6.0 mph 12.0 mph 66 % 0.00 in 40 W/m2
17:34 65.7 °F 54.0 °F 30.06 in SE 6.0 mph 9.0 mph 66 % 0.00 in 40 W/m2
17:39 65.5 °F 53.8 °F 30.06 in SE 5.0 mph 9.0 mph 66 % 0.00 in 33 W/m2
17:44 65.5 °F 53.8 °F 30.06 in ESE 5.0 mph 9.0 mph 66 % 0.00 in 42 W/m2
17:49 65.5 °F 53.8 °F 30.06 in ESE 6.0 mph 12.0 mph 66 % 0.00 in 42 W/m2
17:54 65.3 °F 54.1 °F 30.06 in ESE 5.0 mph 12.0 mph 67 % 0.00 in 37 W/m2
17:59 65.1 °F 53.9 °F 30.06 in ESE 5.0 mph 8.0 mph 67 % 0.00 in 39 W/m2
18:04 65.1 °F 53.9 °F 30.06 in ESE 5.0 mph 8.0 mph 67 % 0.00 in 37 W/m2
18:09 65.1 °F 54.3 °F 30.06 in ESE 5.0 mph 8.0 mph 68 % 0.00 in 30 W/m2
18:14 64.9 °F 54.5 °F 30.06 in ESE 5.0 mph 9.0 mph 69 % 0.00 in 21 W/m2
18:19 64.8 °F 54.3 °F 30.06 in ESE 5.0 mph 9.0 mph 69 % 0.00 in 14 W/m2
18:24 64.6 °F 54.6 °F 30.06 in ESE 6.0 mph 10.0 mph 70 % 0.00 in 11 W/m2
18:29 64.6 °F 54.6 °F 30.06 in ESE 6.0 mph 10.0 mph 70 % 0.00 in 9 W/m2
18:34 64.4 °F 54.4 °F 30.07 in ESE 5.0 mph 11.0 mph 70 % 0.00 in 7 W/m2
18:39 64.2 °F 54.6 °F 30.07 in ESE 5.0 mph 11.0 mph 71 % 0.00 in 5 W/m2
18:44 64.2 °F 54.6 °F 30.07 in ESE 4.0 mph 8.0 mph 71 % 0.00 in 0 W/m2
18:49 64.2 °F 54.6 °F 30.07 in ESE 5.0 mph 11.0 mph 71 % 0.00 in 0 W/m2
18:54 64.0 °F 54.4 °F 30.07 in ESE 6.0 mph 11.0 mph 71 % 0.00 in 0 W/m2
18:59 64.0 °F 54.4 °F 30.07 in ESE 6.0 mph 11.0 mph 71 % 0.00 in 0 W/m2
19:04 63.9 °F 54.7 °F 30.07 in ESE 6.0 mph 11.0 mph 72 % 0.00 in 0 W/m2
19:09 63.9 °F 54.7 °F 30.07 in ESE 5.0 mph 8.0 mph 72 % 0.00 in 0 W/m2
19:14 63.7 °F 54.5 °F 30.07 in ESE 5.0 mph 9.0 mph 72 % 0.00 in 0 W/m2
19:19 63.7 °F 54.9 °F 30.07 in ESE 4.0 mph 9.0 mph 73 % 0.00 in 0 W/m2
19:24 63.3 °F 54.9 °F 30.07 in ESE 4.0 mph 7.0 mph 74 % 0.00 in 0 W/m2
19:29 63.3 °F 54.9 °F 30.07 in ESE 4.0 mph 8.0 mph 74 % 0.00 in 0 W/m2
19:34 63.1 °F 55.1 °F 30.07 in ESE 5.0 mph 9.0 mph 75 % 0.00 in 0 W/m2
19:39 63.0 °F 55.3 °F 30.07 in ESE 5.0 mph 9.0 mph 76 % 0.00 in 0 W/m2
19:44 62.8 °F 55.1 °F 30.07 in ESE 5.0 mph 8.0 mph 76 % 0.00 in 0 W/m2
19:49 62.8 °F 55.1 °F 30.08 in ESE 5.0 mph 9.0 mph 76 % 0.00 in 0 W/m2
19:54 62.4 °F 55.1 °F 30.08 in ESE 6.0 mph 10.0 mph 77 % 0.00 in 0 W/m2
19:59 62.4 °F 55.1 °F 30.08 in ESE 6.0 mph 10.0 mph 77 % 0.00 in 0 W/m2
20:04 62.2 °F 54.9 °F 30.08 in ESE 6.0 mph 10.0 mph 77 % 0.00 in 0 W/m2
20:09 62.1 °F 54.8 °F 30.07 in ESE 6.0 mph 10.0 mph 77 % 0.00 in 0 W/m2
20:14 62.1 °F 54.8 °F 30.08 in ESE 6.0 mph 9.0 mph 77 % 0.00 in 0 W/m2
20:19 61.9 °F 54.2 °F 30.08 in ESE 6.0 mph 10.0 mph 76 % 0.00 in 0 W/m2
20:25 61.9 °F 54.2 °F 30.08 in ESE 6.0 mph 10.0 mph 76 % 0.00 in 0 W/m2
20:30 61.7 °F 53.7 °F 30.08 in ESE 7.0 mph 11.0 mph 75 % 0.00 in 0 W/m2
20:35 61.5 °F 53.2 °F 30.08 in ESE 7.0 mph 12.0 mph 74 % 0.00 in 0 W/m2
20:40 61.5 °F 52.8 °F 30.08 in ESE 7.0 mph 12.0 mph 73 % 0.00 in 0 W/m2
20:45 61.5 °F 52.8 °F 30.08 in ESE 7.0 mph 11.0 mph 73 % 0.00 in 0 W/m2
20:50 61.3 °F 52.6 °F 30.09 in SE 7.0 mph 11.0 mph 73 % 0.00 in 0 W/m2
20:55 61.3 °F 52.6 °F 30.09 in SE 6.0 mph 11.0 mph 73 % 0.00 in 0 W/m2
21:00 61.3 °F 52.6 °F 30.09 in SE 6.0 mph 10.0 mph 73 % 0.00 in 0 W/m2
21:05 61.2 °F 52.4 °F 30.09 in SE 6.0 mph 10.0 mph 73 % 0.00 in 0 W/m2
21:10 61.2 °F 52.4 °F 30.09 in SE 5.0 mph 10.0 mph 73 % 0.00 in 0 W/m2
21:15 61.2 °F 52.4 °F 30.09 in ESE 4.0 mph 8.0 mph 73 % 0.00 in 0 W/m2
21:20 61.0 °F 52.3 °F 30.09 in ESE 4.0 mph 8.0 mph 73 % 0.00 in 0 W/m2
21:25 61.0 °F 52.3 °F 30.09 in ESE 5.0 mph 8.0 mph 73 % 0.00 in 0 W/m2
21:30 61.0 °F 52.6 °F 30.09 in ESE 4.0 mph 8.0 mph 74 % 0.00 in 0 W/m2
21:35 60.8 °F 52.5 °F 30.09 in ESE 4.0 mph 9.0 mph 74 % 0.00 in 0 W/m2
21:40 60.8 °F 52.5 °F 30.09 in ESE 5.0 mph 9.0 mph 74 % 0.00 in 0 W/m2
21:45 60.6 °F 52.3 °F 30.09 in ESE 5.0 mph 8.0 mph 74 % 0.00 in 0 W/m2
21:50 60.6 °F 52.3 °F 30.09 in ESE 5.0 mph 8.0 mph 74 % 0.00 in 0 W/m2
21:55 60.6 °F 52.3 °F 30.09 in ESE 4.0 mph 8.0 mph 74 % 0.00 in 0 W/m2
22:00 60.4 °F 52.5 °F 30.09 in ESE 3.0 mph 6.0 mph 75 % 0.00 in 0 W/m2
22:05 60.4 °F 52.5 °F 30.09 in ESE 3.0 mph 8.0 mph 75 % 0.00 in 0 W/m2
22:10 60.4 °F 52.5 °F 30.09 in ESE 4.0 mph 8.0 mph 75 % 0.00 in 0 W/m2
22:15 60.4 °F 52.8 °F 30.09 in SE 4.0 mph 8.0 mph 76 % 0.00 in 0 W/m2
22:20 60.3 °F 52.7 °F 30.09 in SE 4.0 mph 8.0 mph 76 % 0.00 in 0 W/m2
22:25 60.3 °F 52.7 °F 30.09 in ESE 4.0 mph 9.0 mph 76 % 0.00 in 0 W/m2
22:30 60.3 °F 52.7 °F 30.09 in ESE 5.0 mph 9.0 mph 76 % 0.00 in 0 W/m2
22:33 60.3 °F 52.7 °F 30.09 in ESE 5.0 mph 9.0 mph 76 % 0.00 in 0 W/m2
22:38 60.1 °F 52.8 °F 30.09 in ESE 5.0 mph 9.0 mph 77 % 0.00 in 0 W/m2
22:48 59.9 °F 52.7 °F 30.09 in SE 4.0 mph 8.0 mph 77 % 0.00 in 0 W/m2
22:53 59.9 °F 53.0 °F 30.09 in SE 6.0 mph 11.0 mph 78 % 0.00 in 0 W/m2
22:58 59.7 °F 52.8 °F 30.09 in SE 6.0 mph 11.0 mph 78 % 0.00 in 0 W/m2
23:03 59.7 °F 53.2 °F 30.09 in SE 6.0 mph 10.0 mph 79 % 0.00 in 0 W/m2
23:08 59.5 °F 53.4 °F 30.09 in SE 7.0 mph 10.0 mph 80 % 0.00 in 0 W/m2
23:13 59.2 °F 53.7 °F 30.09 in SE 6.0 mph 10.0 mph 82 % 0.01 in 0 W/m2
23:18 58.8 °F 53.7 °F 30.09 in ESE 5.0 mph 8.0 mph 83 % 0.01 in 0 W/m2
23:23 58.6 °F 53.8 °F 30.09 in ESE 4.0 mph 7.0 mph 84 % 0.01 in 0 W/m2
23:28 58.5 °F 54.0 °F 30.09 in ESE 3.0 mph 7.0 mph 85 % 0.01 in 0 W/m2
23:33 58.1 °F 53.6 °F 30.09 in ESE 4.0 mph 7.0 mph 85 % 0.02 in 0 W/m2
23:38 57.9 °F 53.8 °F 30.09 in ESE 4.0 mph 9.0 mph 86 % 0.02 in 0 W/m2
23:43 57.7 °F 53.6 °F 30.09 in ESE 4.0 mph 9.0 mph 86 % 0.02 in 0 W/m2
23:49 57.6 °F 53.7 °F 30.09 in ESE 4.0 mph 8.0 mph 87 % 0.02 in 0 W/m2
23:54 57.4 °F 53.5 °F 30.09 in ESE 4.0 mph 8.0 mph 87 % 0.02 in 0 W/m2
23:59 57.4 °F 53.9 °F 30.09 in ESE 3.0 mph 7.0 mph 88 % 0.02 in 0 W/m2
Delerius-Weather
Compliments of Weather Underground - 2.25 mb

Data updates at regular intervals.